Time;durP1;ratioP1;P1;durP2;ratioP2;P2;SDS_P1;SDS_P2;PMS_P1;PMS_P2;Temp;Humidity;BMP_temperature;BMP_pressure;BME280_temperature;BME280_humidity;BME280_pressure;Samples;Min_cycle;Max_cycle;Signal;HPM_P1;HPM_P2
2023/07/21 00:01:00;;;;;;;3.88;1.42;;;;;;;15.05;100.00;100291.91;7738983;23;20351;-91
2023/07/21 00:04:03;;;;;;;2.58;1.40;;;;;;;15.07;100.00;100276.94;7739100;23;20016;-91
2023/07/21 00:07:06;;;;;;;2.45;1.42;;;;;;;15.04;100.00;100279.84;7738091;23;20119;-91
2023/07/21 00:10:09;;;;;;;2.78;1.40;;;;;;;15.01;100.00;100275.78;7737880;23;20020;-91
2023/07/21 00:13:11;;;;;;;2.47;1.63;;;;;;;15.01;100.00;100275.78;7738826;23;20020;-91
2023/07/21 00:16:13;;;;;;;1.92;1.48;;;;;;;15.01;100.00;100273.16;7710894;23;20130;-92
2023/07/21 00:19:15;;;;;;;3.30;1.40;;;;;;;15.01;100.00;100282.78;7737806;23;20378;-91
2023/07/21 00:22:17;;;;;;;3.25;1.42;;;;;;;15.01;100.00;100282.78;7737071;23;20036;-92
2023/07/21 00:25:19;;;;;;;1.83;1.67;;;;;;;14.99;100.00;100277.72;7738430;23;20016;-91
2023/07/21 00:28:21;;;;;;;4.22;1.50;;;;;;;15.00;100.00;100270.69;7738717;23;20027;-92
2023/07/21 00:31:23;;;;;;;2.85;1.23;;;;;;;15.00;100.00;100268.09;7740706;23;20020;-92
2023/07/21 00:34:25;;;;;;;2.00;1.50;;;;;;;14.97;100.00;100260.59;7713629;23;20027;-91
2023/07/21 00:37:27;;;;;;;2.13;1.48;;;;;;;14.97;100.00;100264.00;7739741;23;20074;-91
2023/07/21 00:40:33;;;;;;;6.38;1.55;;;;;;;14.98;100.00;100264.81;7740873;23;20027;-91
2023/07/21 00:43:35;;;;;;;3.85;1.40;;;;;;;14.95;100.00;100255.53;7741394;23;20151;-91
2023/07/21 00:46:37;;;;;;;1.90;1.50;;;;;;;14.96;100.00;100253.75;7741096;23;20024;-91
2023/07/21 00:49:39;;;;;;;1.83;1.40;;;;;;;14.97;100.00;100253.59;7740616;23;20027;-91
2023/07/21 00:52:43;;;;;;;2.05;1.60;;;;;;;15.01;100.00;100254.91;7741959;23;20683;-91
2023/07/21 00:55:58;;;;;;;2.22;1.60;;;;;;;15.00;100.00;100250.66;7713689;23;20027;-91
2023/07/21 00:59:02;;;;;;;1.60;1.38;;;;;;;15.02;100.00;100247.91;7742211;23;20563;-91
2023/07/21 01:02:05;;;;;;;1.90;1.33;;;;;;;15.01;100.00;100254.09;7713734;23;20171;-91
2023/07/21 01:05:08;;;;;;;1.75;1.40;;;;;;;15.04;100.00;100254.59;7713157;23;20357;-92
2023/07/21 01:08:12;;;;;;;2.35;1.40;;;;;;;15.02;100.00;100253.94;7740843;23;20343;-91
2023/07/21 01:11:14;;;;;;;2.25;1.70;;;;;;;15.03;100.00;100249.53;7741040;23;20020;-91
2023/07/21 01:14:17;;;;;;;2.22;1.50;;;;;;;15.06;100.00;100262.28;7712435;23;20024;-91
2023/07/21 01:17:19;;;;;;;3.63;1.85;;;;;;;15.05;100.00;100268.44;7713639;23;20030;-94
2023/07/21 01:20:25;;;;;;;4.72;1.70;;;;;;;14.84;100.00;100269.66;7713183;23;20517;-91
2023/07/21 01:23:44;;;;;;;4.25;1.83;;;;;;;14.53;100.00;100282.31;7713823;23;20027;-92
2023/07/21 01:26:48;;;;;;;3.20;1.90;;;;;;;14.33;100.00;100276.47;7740558;23;20084;-91
2023/07/21 01:29:51;;;;;;;2.75;1.90;;;;;;;14.28;100.00;100289.13;7740826;23;20020;-91
2023/07/21 01:32:54;;;;;;;3.70;1.98;;;;;;;14.21;100.00;100288.09;7687666;23;20024;-91
2023/07/21 01:35:58;;;;;;;2.85;1.60;;;;;;;14.18;100.00;100288.38;7689005;23;20028;-90
2023/07/21 01:39:04;;;;;;;2.85;2.08;;;;;;;14.14;100.00;100292.28;7720134;23;20542;-90
2023/07/21 01:42:07;;;;;;;2.72;1.95;;;;;;;14.09;100.00;100289.31;7687209;23;20288;-90
2023/07/21 01:45:13;;;;;;;3.10;2.00;;;;;;;14.06;100.00;100300.84;7738470;23;20023;-90
2023/07/21 01:48:15;;;;;;;2.35;2.00;;;;;;;14.09;100.00;100299.72;7687551;23;20164;-91
2023/07/21 01:51:19;;;;;;;2.90;2.00;;;;;;;14.06;100.00;100302.59;7739980;23;20051;-91
2023/07/21 01:54:51;;;;;;;2.30;2.10;;;;;;;13.99;100.00;100302.41;7740368;23;20019;-91
2023/07/21 01:58:06;;;;;;;3.83;2.13;;;;;;;13.98;100.00;100306.75;7713732;23;20028;-91
2023/07/21 02:01:11;;;;;;;2.97;2.28;;;;;;;13.95;100.00;100304.47;7687959;23;20024;-91
2023/07/21 02:04:13;;;;;;;4.07;2.25;;;;;;;13.92;100.00;100314.34;7712895;23;20098;-90
2023/07/21 02:07:16;;;;;;;4.80;2.40;;;;;;;13.79;100.00;100305.13;7688411;23;20338;-91
2023/07/21 02:10:18;;;;;;;5.70;2.13;;;;;;;13.75;100.00;100301.19;7713152;23;20528;-90
2023/07/21 02:13:26;;;;;;;2.42;1.90;;;;;;;13.69;100.00;100298.34;7688045;23;20035;-91
2023/07/21 02:16:28;;;;;;;3.40;1.92;;;;;;;13.71;100.00;100304.22;7739058;23;20023;-91
2023/07/21 02:19:30;;;;;;;2.60;2.30;;;;;;;13.75;100.00;100298.56;7711453;23;20031;-93
2023/07/21 02:22:33;;;;;;;5.90;2.50;;;;;;;13.86;100.00;100305.34;7740033;23;20560;-92
2023/07/21 02:25:35;;;;;;;2.30;2.05;;;;;;;13.89;100.00;100305.06;7739930;23;20027;-91
2023/07/21 02:28:37;;;;;;;3.00;2.55;;;;;;;13.90;100.00;100305.88;7688380;23;20020;-90
2023/07/21 02:31:39;;;;;;;5.63;2.78;;;;;;;13.95;100.00;100304.47;7739804;23;20012;-90
2023/07/21 02:34:41;;;;;;;3.30;2.63;;;;;;;13.93;100.00;100306.38;7739706;23;20027;-90
2023/07/21 02:37:43;;;;;;;3.83;2.70;;;;;;;13.96;100.00;100300.91;7739327;23;20391;-90
2023/07/21 02:40:44;;;;;;;3.60;2.75;;;;;;;13.99;100.00;100295.41;7713648;23;20431;-90
2023/07/21 02:43:49;;;;;;;3.45;2.83;;;;;;;13.99;100.00;100290.19;7712324;23;20020;-90
2023/07/21 02:46:52;;;;;;;4.63;2.63;;;;;;;14.00;100.00;100278.81;7739773;23;20020;-89
2023/07/21 02:49:53;;;;;;;4.28;2.55;;;;;;;14.05;100.00;100286.16;7739359;23;20016;-90
2023/07/21 02:52:55;;;;;;;4.05;2.70;;;;;;;14.07;100.00;100291.25;7711499;23;20135;-90
2023/07/21 02:55:59;;;;;;;5.30;3.08;;;;;;;14.07;100.00;100289.44;7712000;23;20051;-89
2023/07/21 02:59:02;;;;;;;5.07;2.95;;;;;;;14.04;100.00;100281.94;7687126;23;20030;-91
2023/07/21 03:02:05;;;;;;;4.68;2.80;;;;;;;14.02;100.00;100272.66;7711195;23;20052;-90
2023/07/21 03:05:19;;;;;;;4.43;3.22;;;;;;;14.03;100.00;100269.88;7712510;23;20300;-90
2023/07/21 03:08:30;;;;;;;5.32;2.95;;;;;;;14.03;100.00;100267.28;7687389;23;20031;-90
2023/07/21 03:11:39;;;;;;;3.70;2.63;;;;;;;14.04;100.00;100270.72;7712635;23;20020;-90
2023/07/21 03:14:55;;;;;;;4.47;2.88;;;;;;;14.04;100.00;100273.31;7736344;23;20461;-90
2023/07/21 03:17:58;;;;;;;4.25;3.10;;;;;;;13.98;100.00;100272.94;7686017;23;20027;-90
2023/07/21 03:21:04;;;;;;;3.05;2.75;;;;;;;13.88;100.00;100263.56;7711680;23;20346;-91
2023/07/21 03:24:08;;;;;;;5.47;3.10;;;;;;;13.76;100.00;100282.03;7713005;23;20461;-90
2023/07/21 03:27:12;;;;;;;4.88;2.95;;;;;;;13.68;100.00;100270.69;7712134;23;20109;-90
2023/07/21 03:30:15;;;;;;;3.72;2.58;;;;;;;13.63;100.00;100267.72;7739370;23;20453;-90
2023/07/21 03:33:25;;;;;;;4.75;3.03;;;;;;;13.56;100.00;100260.53;7688683;23;20159;-90
2023/07/21 03:36:40;;;;;;;4.43;2.63;;;;;;;13.53;100.00;100258.19;7712073;23;20023;-90
2023/07/21 03:39:48;;;;;;;2.80;2.53;;;;;;;13.52;100.00;100245.34;7686820;23;20026;-90
2023/07/21 03:42:52;;;;;;;4.40;2.85;;;;;;;13.55;100.00;100240.66;7711796;23;20611;-90
2023/07/21 03:46:05;;;;;;;3.47;2.80;;;;;;;13.53;100.00;100239.19;7686411;23;20093;-90
2023/07/21 03:49:38;;;;;;;2.92;2.63;;;;;;;13.46;100.00;100236.34;7712275;23;20143;-90
2023/07/21 03:52:43;;;;;;;5.07;2.88;;;;;;;13.47;100.00;100240.59;7711702;23;20027;-89
2023/07/21 03:55:49;;;;;;;3.67;2.72;;;;;;;13.45;100.00;100239.91;7711832;23;20016;-90
2023/07/21 03:58:53;;;;;;;6.68;3.00;;;;;;;13.46;100.00;100241.53;7686762;23;20035;-90
2023/07/21 04:01:55;;;;;;;3.78;2.70;;;;;;;13.51;100.00;100235.91;7711779;23;20020;-90
2023/07/21 04:04:57;;;;;;;6.18;2.90;;;;;;;13.58;100.00;100229.16;7735625;23;20024;-90
2023/07/21 04:07:59;;;;;;;3.65;2.88;;;;;;;13.67;100.00;100222.25;7711972;23;20247;-90
2023/07/21 04:11:01;;;;;;;5.05;2.70;;;;;;;13.67;100.00;100217.06;7711791;23;20553;-90
2023/07/21 04:14:03;;;;;;;4.07;3.00;;;;;;;13.63;100.00;100215.72;7713262;23;20050;-90
2023/07/21 04:17:05;;;;;;;3.47;2.83;;;;;;;13.61;100.00;100223.66;7711748;23;20062;-90
2023/07/21 04:20:10;;;;;;;4.10;2.95;;;;;;;13.53;100.00;100221.78;7686302;23;20377;-90
2023/07/21 04:23:14;;;;;;;2.35;2.15;;;;;;;13.51;100.00;100221.13;7739488;23;20016;-90
2023/07/21 04:26:16;;;;;;;3.75;2.63;;;;;;;13.48;100.00;100225.81;7739203;23;20546;-90
2023/07/21 04:29:18;;;;;;;3.42;2.97;;;;;;;13.46;100.00;100228.53;7739434;23;20581;-90
2023/07/21 04:32:38;;;;;;;5.03;2.90;;;;;;;13.48;100.00;100226.63;7710574;23;20028;-90
2023/07/21 04:35:47;;;;;;;3.60;2.63;;;;;;;13.52;100.00;100217.56;7711486;23;20024;-90
2023/07/21 04:38:56;;;;;;;3.72;2.63;;;;;;;13.54;100.00;100212.22;7710975;23;20438;-90
2023/07/21 04:41:59;;;;;;;3.90;2.92;;;;;;;13.59;100.00;100220.41;7687317;23;20150;-90
2023/07/21 04:45:01;;;;;;;3.35;2.90;;;;;;;13.64;100.00;100206.94;7711342;23;20028;-90
2023/07/21 04:48:05;;;;;;;3.92;2.88;;;;;;;13.69;100.00;100202.09;7686887;23;20150;-90
2023/07/21 04:51:12;;;;;;;4.68;2.95;;;;;;;13.70;100.00;100201.16;7711564;23;20097;-90
2023/07/21 04:54:14;;;;;;;3.00;2.50;;;;;;;13.75;100.00;100204.94;7738863;23;20399;-90
2023/07/21 04:57:16;;;;;;;4.95;2.95;;;;;;;13.83;100.00;100209.38;7737911;23;20698;-90
2023/07/21 05:00:18;;;;;;;4.63;3.10;;;;;;;13.93;100.00;100202.31;7711096;23;20407;-90
2023/07/21 05:03:21;;;;;;;4.35;3.28;;;;;;;14.07;100.00;100195.75;7710816;23;20465;-90
2023/07/21 05:06:22;;;;;;;4.60;3.22;;;;;;;14.22;100.00;100196.00;7739113;23;20020;-90
2023/07/21 05:09:26;;;;;;;5.72;3.28;;;;;;;14.41;100.00;100192.41;7711334;23;20024;-90
2023/07/21 05:12:33;;;;;;;4.97;2.92;;;;;;;14.53;100.00;100196.38;7711297;23;20026;-90
2023/07/21 05:16:00;;;;;;;3.28;2.65;;;;;;;14.72;100.00;100190.13;7711392;23;20030;-90
2023/07/21 05:19:21;;;;;;;4.07;3.15;;;;;;;14.84;100.00;100188.06;7717904;23;20063;-91
2023/07/21 05:22:55;;;;;;;4.60;3.03;;;;;;;15.00;100.00;100184.69;7624066;23;20033;-91
2023/07/21 05:26:14;;;;;;;4.00;3.60;;;;;;;15.12;100.00;100180.81;7648455;23;20359;-90
2023/07/21 05:29:16;;;;;;;3.60;3.00;;;;;;;15.29;100.00;100179.88;7624648;23;20033;-91
2023/07/21 05:32:20;;;;;;;4.70;3.63;;;;;;;15.46;100.00;100178.09;7598790;23;20025;-91
2023/07/21 05:35:30;;;;;;;5.80;3.33;;;;;;;15.58;100.00;100178.63;7598562;23;20475;-91
2023/07/21 05:38:37;;;;;;;4.07;3.13;;;;;;;15.63;100.00;100173.72;7599610;23;20021;-91
2023/07/21 05:41:39;;;;;;;5.07;3.22;;;;;;;15.64;100.00;100177.94;7624408;23;20594;-91
2023/07/21 05:44:45;;;;;;;3.83;3.15;;;;;;;15.59;100.00;100174.19;7648899;23;20443;-91
2023/07/21 05:47:49;;;;;;;3.40;2.80;;;;;;;15.54;100.00;100189.53;7624371;23;20069;-92
2023/07/21 05:50:52;;;;;;;3.80;2.72;;;;;;;15.49;100.00;100188.22;7599571;23;20069;-91
2023/07/21 05:53:54;;;;;;;9.13;3.22;;;;;;;15.47;100.00;100186.75;7599104;23;20028;-92
2023/07/21 05:56:58;;;;;;;3.78;2.70;;;;;;;15.58;100.00;100191.66;7602046;23;20045;-91
2023/07/21 06:00:07;;;;;;;3.92;2.67;;;;;;;15.72;100.00;100190.22;7707511;23;20090;-92
2023/07/21 06:03:13;;;;;;;3.10;2.38;;;;;;;15.94;100.00;100183.53;7739955;23;20086;-92
2023/07/21 06:06:16;;;;;;;4.28;2.60;;;;;;;16.07;100.00;100177.78;7687920;23;20031;-92
2023/07/21 06:09:38;;;;;;;;;;;;;;;16.23;100.00;100172.56;7741063;23;20083;-92
2023/07/21 06:12:56;;;;;;;3.28;2.67;;;;;;;16.41;100.00;100164.50;7713451;23;19942;-92
2023/07/21 06:16:07;;;;;;;3.47;2.55;;;;;;;16.46;100.00;100164.81;7711921;23;20020;-92
2023/07/21 06:19:14;;;;;;;4.38;2.60;;;;;;;16.48;100.00;100165.47;7712507;23;20095;-92
2023/07/21 06:22:17;;;;;;;2.92;2.20;;;;;;;16.54;100.00;100156.94;7686562;23;20031;-92
2023/07/21 06:25:19;;;;;;;5.28;2.78;;;;;;;16.61;100.00;100149.25;7713704;23;20035;-93
2023/07/21 06:28:24;;;;;;;4.75;2.40;;;;;;;16.61;100.00;100149.25;7713699;23;20537;-92
2023/07/21 06:31:26;;;;;;;2.78;2.30;;;;;;;16.59;100.00;100151.22;7715375;23;20027;-93
2023/07/21 06:34:43;;;;;;;3.40;2.42;;;;;;;16.65;100.00;100152.34;7741097;23;20023;-93
2023/07/21 06:38:09;;;;;;;4.22;2.40;;;;;;;16.78;100.00;100144.78;7656497;23;20463;-95
2023/07/21 06:41:23;;;;;;;3.92;2.35;;;;;;;16.91;100.00;100139.81;7661964;23;20674;-94
2023/07/21 06:44:46;;;;;;;2.95;2.55;;;;;;;17.08;100.00;100139.72;7661665;23;20451;-94
2023/07/21 06:48:18;;;;;;;2.83;2.22;;;;;;;17.22;100.00;100134.56;7589923;23;20022;-94
2023/07/21 06:51:32;;;;;;;2.20;2.00;;;;;;;17.15;100.00;100131.00;7588785;23;20622;-95
2023/07/21 06:54:36;;;;;;;2.55;1.98;;;;;;;17.14;100.00;100126.78;7588406;23;20037;-94
2023/07/21 06:57:38;;;;;;;2.85;2.08;;;;;;;17.19;100.00;100134.91;7588708;23;20108;-95
2023/07/21 07:00:40;;;;;;;4.32;1.80;;;;;;;17.27;100.00;100126.19;7587748;23;20393;-94
2023/07/21 07:03:42;;;;;;;3.92;1.80;;;;;;;17.33;100.00;100120.25;7587731;23;20097;-94
2023/07/21 07:06:47;;;;;;;2.72;1.90;;;;;;;17.38;100.00;100127.59;7612374;23;20515;-95
2023/07/21 07:09:49;;;;;;;2.70;1.90;;;;;;;17.32;100.00;100131.72;7588995;23;20025;-95
2023/07/21 07:12:55;;;;;;;3.47;1.70;;;;;;;17.30;100.00;100123.22;7587683;23;20029;-95
2023/07/21 07:15:57;;;;;;;2.35;1.92;;;;;;;17.34;100.00;100119.28;7648789;23;20025;-93
2023/07/21 07:18:59;;;;;;;2.45;1.70;;;;;;;17.40;100.00;100123.81;7636345;23;20029;-95
2023/07/21 07:22:01;;;;;;;2.85;1.92;;;;;;;17.48;100.00;100116.88;7637510;23;20506;-95
2023/07/21 07:25:04;;;;;;;3.22;2.08;;;;;;;17.52;100.00;100118.16;7688620;23;20020;-95
2023/07/21 07:28:07;;;;;;;3.35;1.90;;;;;;;17.63;100.00;100117.72;7715134;23;20091;-94
2023/07/21 07:31:09;;;;;;;2.25;2.05;;;;;;;17.82;100.00;100119.06;7713481;23;20027;-95
2023/07/21 07:34:11;;;;;;;2.90;2.00;;;;;;;17.98;100.00;100118.88;7741600;23;20028;-95
2023/07/21 07:37:14;;;;;;;2.47;2.22;;;;;;;18.12;100.00;100114.66;7713191;23;20020;-95
2023/07/21 07:40:18;;;;;;;3.30;1.80;;;;;;;18.16;100.00;100112.47;7740991;23;20020;-95
2023/07/21 07:43:20;;;;;;;2.35;2.15;;;;;;;18.12;100.00;100111.25;7740899;23;20625;-95
2023/07/21 07:46:23;;;;;;;2.38;2.10;;;;;;;18.10;100.00;100118.47;7741085;23;20024;-95
2023/07/21 07:49:26;;;;;;;1.77;1.67;;;;;;;18.06;100.00;100118.81;7739330;23;20454;-95
2023/07/21 07:52:28;;;;;;;5.63;1.90;;;;;;;18.02;100.00;100120.16;7740874;23;20565;-93
2023/07/21 07:55:30;;;;;;;2.53;1.92;;;;;;;17.97;100.00;100109.41;7741677;23;20016;-92
2023/07/21 07:58:32;;;;;;;5.80;2.25;;;;;;;17.95;100.00;100115.81;7676661;23;20355;-93
2023/07/21 08:01:34;;;;;;;2.88;1.92;;;;;;;18.01;100.00;100112.47;7728655;23;20020;-93
2023/07/21 08:04:37;;;;;;;3.70;2.83;;;;;;;18.13;100.00;100116.28;7740602;23;20012;-94
2023/07/21 08:07:39;;;;;;;3.35;2.35;;;;;;;18.30;100.00;100106.44;7714545;23;20051;-94
2023/07/21 08:10:41;;;;;;;2.75;2.30;;;;;;;18.44;100.00;100112.66;7713462;23;20450;-94
2023/07/21 08:13:44;;;;;;;3.15;2.45;;;;;;;18.70;100.00;100105.09;7740880;23;20020;-94
2023/07/21 08:16:46;;;;;;;2.78;2.47;;;;;;;18.97;100.00;100110.66;7713428;23;20024;-93
2023/07/21 08:19:49;;;;;;;3.33;2.45;;;;;;;19.16;100.00;100104.00;7740483;23;20020;-93
2023/07/21 08:22:51;;;;;;;4.65;2.67;;;;;;;19.28;100.00;100093.81;7740928;23;20087;-93
2023/07/21 08:25:53;;;;;;;2.65;2.08;;;;;;;19.39;100.00;100100.38;7713572;23;20025;-93
2023/07/21 08:28:55;;;;;;;2.67;2.20;;;;;;;19.35;100.00;100090.25;7740250;23;20016;-93
2023/07/21 08:31:57;;;;;;;3.60;2.35;;;;;;;19.26;100.00;100095.81;7741186;23;20020;-93
2023/07/21 08:35:00;;;;;;;2.30;2.10;;;;;;;19.21;100.00;100092.94;7739959;23;20103;-92
2023/07/21 08:38:02;;;;;;;3.10;2.38;;;;;;;19.23;100.00;100088.28;7740541;23;20016;-93
2023/07/21 08:41:07;;;;;;;2.45;2.25;;;;;;;19.35;100.00;100090.25;7741779;23;20522;-92
2023/07/21 08:44:10;;;;;;;2.97;2.20;;;;;;;19.75;100.00;100089.75;7740370;23;20399;-93
2023/07/21 08:47:12;;;;;;;2.30;2.10;;;;;;;20.30;100.00;100093.31;7713037;23;20024;-93
2023/07/21 08:50:18;;;;;;;2.58;2.38;;;;;;;20.93;100.00;100093.13;7713507;23;20024;-93
2023/07/21 08:53:27;;;;;;;3.42;2.45;;;;;;;21.52;100.00;100098.69;7743436;23;20098;-93
2023/07/21 08:56:29;;;;;;;3.15;1.95;;;;;;;21.82;100.00;100099.06;7717649;23;20484;-93
2023/07/21 08:59:31;;;;;;;2.42;1.80;;;;;;;21.87;100.00;100088.72;7716143;23;20359;-94
2023/07/21 09:02:58;;;;;;;2.08;1.90;;;;;;;21.96;100.00;100086.66;7716310;23;20020;-93
2023/07/21 09:06:01;;;;;;;3.92;1.50;;;;;;;21.73;100.00;100086.06;7717056;23;20020;-93
2023/07/21 09:09:04;;;;;;;2.42;2.17;;;;;;;21.35;100.00;100085.09;7743856;23;20016;-94
2023/07/21 09:12:09;;;;;;;3.70;1.70;;;;;;;21.18;100.00;100090.72;7744175;23;20021;-89
2023/07/21 09:15:12;;;;;;;2.88;2.00;;;;;;;21.02;100.00;100088.50;7743152;23;20015;-94
2023/07/21 09:18:14;;;;;;;2.05;1.95;;;;;;;20.89;100.00;100075.31;7743309;23;20142;-94
2023/07/21 09:21:20;;;;;;;3.47;2.28;;;;;;;20.68;100.00;100071.03;7716205;23;20016;-92
2023/07/21 09:24:22;;;;;;;2.00;1.80;;;;;;;20.42;100.00;100075.97;7743016;23;20131;-94
2023/07/21 09:27:27;;;;;;;2.42;2.10;;;;;;;20.22;100.00;100083.78;7715893;23;20031;-93
2023/07/21 09:30:29;;;;;;;2.42;1.88;;;;;;;20.27;100.00;100079.72;7715140;23;20034;-93
2023/07/21 09:33:32;;;;;;;2.92;2.20;;;;;;;20.32;100.00;100088.69;7742916;23;20342;-95
2023/07/21 09:36:35;;;;;;;2.75;2.50;;;;;;;20.41;100.00;100082.22;7715829;23;20148;-93
2023/07/21 09:39:43;;;;;;;2.95;2.30;;;;;;;20.50;100.00;100075.00;7743652;23;20020;-93
2023/07/21 09:42:46;;;;;;;3.42;2.20;;;;;;;20.59;100.00;100075.63;7742479;23;20026;-93
2023/07/21 09:45:48;;;;;;;2.75;2.08;;;;;;;20.66;100.00;100073.84;7741539;23;20023;-94
2023/07/21 09:48:50;;;;;;;3.20;2.47;;;;;;;20.75;100.00;100070.03;7742068;23;20020;-94
2023/07/21 09:51:55;;;;;;;3.35;2.00;;;;;;;20.81;100.00;100065.78;7715871;23;20028;-94
2023/07/21 09:55:11;;;;;;;4.00;2.60;;;;;;;20.66;100.00;100073.84;7689931;23;20020;-93
2023/07/21 09:58:16;;;;;;;4.53;2.97;;;;;;;20.41;100.00;100069.06;7716045;23;20039;-93
2023/07/21 10:01:20;;;;;;;2.75;2.50;;;;;;;20.41;100.00;100057.75;7714903;23;20020;-95
2023/07/21 10:04:26;;;;;;;3.72;2.53;;;;;;;20.67;100.00;100069.38;7742392;23;20016;-93
2023/07/21 10:07:28;;;;;;;2.70;2.42;;;;;;;20.97;100.00;100052.25;7742644;23;20138;-93
2023/07/21 10:10:30;;;;;;;3.45;2.55;;;;;;;21.39;100.00;100059.97;7742544;23;20620;-94
2023/07/21 10:13:33;;;;;;;3.22;2.75;;;;;;;21.85;100.00;100061.75;7715926;23;20449;-94
2023/07/21 10:16:35;;;;;;;3.15;2.35;;;;;;;22.28;100.00;100061.22;7742508;23;20119;-94
2023/07/21 10:19:44;;;;;;;2.63;2.28;;;;;;;22.73;100.00;100053.28;7743057;23;20016;-94
2023/07/21 10:22:56;;;;;;;2.90;2.37;;;;;;;23.15;100.00;100054.44;7742347;23;20083;-93
2023/07/21 10:26:08;;;;;;;2.20;2.00;;;;;;;23.39;100.00;100044.88;7742186;23;20016;-94
2023/07/21 10:29:17;;;;;;;1.92;1.40;;;;;;;23.25;100.00;100055.78;7741173;23;20028;-93
2023/07/21 10:32:22;;;;;;;3.28;1.98;;;;;;;23.15;100.00;100046.50;7742885;23;20027;-95
2023/07/21 10:35:30;;;;;;;4.22;2.20;;;;;;;23.04;100.00;100044.56;7715998;23;20031;-92
2023/07/21 10:38:40;;;;;;;2.05;1.80;;;;;;;22.72;100.00;100047.19;7743065;23;20027;-90
2023/07/21 10:41:42;;;;;;;4.22;1.90;;;;;;;22.66;100.00;100049.88;7742940;23;20016;-92
2023/07/21 10:44:46;;;;;;;3.00;2.40;;;;;;;22.64;100.00;100044.00;7742968;23;20059;-92
2023/07/21 10:47:48;;;;;;;2.10;1.92;;;;;;;22.71;100.00;100039.50;7741947;23;20399;-94
2023/07/21 10:50:54;;;;;;;4.38;2.05;;;;;;;22.48;100.00;100043.47;7740620;23;20028;-94
2023/07/21 10:53:56;;;;;;;1.85;1.75;;;;;;;22.04;100.00;100050.34;7742676;23;20456;-94
2023/07/21 10:57:02;;;;;;;2.55;2.00;;;;;;;21.65;100.00;100051.25;7715026;23;20110;-91
2023/07/21 11:00:06;;;;;;;3.38;2.42;;;;;;;21.30;100.00;100054.09;7690071;23;20446;-93
2023/07/21 11:03:08;;;;;;;3.85;2.17;;;;;;;21.01;100.00;100055.28;7714359;23;20034;-90
2023/07/21 11:06:11;;;;;;;3.13;2.65;;;;;;;20.86;100.00;100048.38;7742152;23;20091;-94
2023/07/21 11:09:13;;;;;;;2.63;2.40;;;;;;;20.74;100.00;100057.88;7742044;23;20016;-94
2023/07/21 11:12:15;;;;;;;3.35;2.17;;;;;;;20.78;100.00;100051.22;7713801;23;20020;-95
2023/07/21 11:15:18;;;;;;;3.97;2.50;;;;;;;20.78;100.00;100056.47;7713671;23;20504;-92
2023/07/21 11:18:23;;;;;;;4.18;2.40;;;;;;;20.70;100.00;100056.66;7740263;23;20355;-94
2023/07/21 11:21:25;;;;;;;3.53;2.28;;;;;;;20.55;100.00;100056.03;7740331;23;20027;-95
2023/07/21 11:24:29;;;;;;;3.13;2.15;;;;;;;20.43;100.00;100053.91;7713026;23;20447;-94
2023/07/21 11:27:32;;;;;;;3.05;2.03;;;;;;;20.46;100.00;100052.72;7713919;23;20020;-95
2023/07/21 11:30:34;;;;;;;2.60;2.40;;;;;;;20.59;100.00;100052.78;7740143;23;20253;-94
2023/07/21 11:33:45;;;;;;;2.50;2.30;;;;;;;20.77;100.00;100044.34;7740632;23;20016;-94
2023/07/21 11:36:49;;;;;;;2.00;1.80;;;;;;;20.88;100.00;100042.94;7712509;23;20388;-95
2023/07/21 11:39:57;;;;;;;1.95;1.75;;;;;;;20.76;100.00;100050.59;7713984;23;20083;-94
2023/07/21 11:43:10;;;;;;;2.97;1.60;;;;;;;20.75;100.00;100043.72;7740672;23;20020;-94
2023/07/21 11:46:25;;;;;;;2.05;1.50;;;;;;;20.71;100.00;100054.84;7740869;23;20022;-95
2023/07/21 11:49:28;;;;;;;1.75;1.60;;;;;;;20.58;100.00;100048.53;7740349;23;20020;-92
2023/07/21 11:52:32;;;;;;;1.58;1.48;;;;;;;20.51;100.00;100054.75;7714301;23;20016;-93
2023/07/21 11:55:34;;;;;;;1.65;1.30;;;;;;;20.39;100.00;100057.94;7712987;23;20095;-93
2023/07/21 11:58:36;;;;;;;4.03;1.30;;;;;;;20.26;100.00;100057.91;7713272;23;20020;-92
2023/07/21 12:01:38;;;;;;;4.68;1.30;;;;;;;20.17;100.00;100059.06;7712710;23;20508;-93
2023/07/21 12:04:41;;;;;;;1.48;1.35;;;;;;;20.17;100.00;100054.66;7741448;23;20047;-94
2023/07/21 12:07:43;;;;;;;1.50;1.40;;;;;;;20.25;100.00;100064.19;7741116;23;20094;-93
2023/07/21 12:10:45;;;;;;;1.52;1.42;;;;;;;20.26;100.00;100068.41;7714476;23;20024;-93
2023/07/21 12:13:47;;;;;;;3.42;1.77;;;;;;;20.08;100.00;100065.50;7714245;23;20048;-92
2023/07/21 12:16:53;;;;;;;3.50;2.00;;;;;;;19.66;100.00;100052.31;7712421;23;20518;-94
2023/07/21 12:19:55;;;;;;;3.50;2.63;;;;;;;19.32;100.00;100071.44;7713034;23;20458;-92
2023/07/21 12:22:58;;;;;;;4.38;3.38;;;;;;;18.94;100.00;100069.09;7741309;23;20119;-90
2023/07/21 12:26:01;;;;;;;4.90;2.67;;;;;;;18.48;100.00;100085.91;7739955;23;20027;-90
2023/07/21 12:29:03;;;;;;;2.30;2.10;;;;;;;17.69;100.00;100083.00;7740621;23;20020;-91
2023/07/21 12:32:06;;;;;;;2.47;2.03;;;;;;;17.20;100.00;100065.91;7739921;23;20017;-92
2023/07/21 12:35:09;;;;;;;2.70;2.03;;;;;;;17.05;100.00;100065.06;7739814;23;20028;-92
2023/07/21 12:38:11;;;;;;;1.92;1.33;;;;;;;17.24;100.00;100050.66;7712316;23;20034;-92
2023/07/21 12:41:13;;;;;;;2.20;1.15;;;;;;;17.50;100.00;100029.34;7739889;23;20020;-95
2023/07/21 12:44:15;;;;;;;2.00;1.30;;;;;;;17.56;100.00;100023.38;7713014;23;20710;-95
2023/07/21 12:47:19;;;;;;;1.30;1.20;;;;;;;17.37;100.00;100009.03;7739548;23;20043;-94
2023/07/21 12:50:21;;;;;;;1.23;1.10;;;;;;;17.31;100.00;100008.94;7712388;23;20046;-94
2023/07/21 12:53:23;;;;;;;1.20;1.10;;;;;;;17.30;100.00;100013.34;7713509;23;20585;-92
2023/07/21 12:56:25;;;;;;;2.13;1.13;;;;;;;17.39;100.00;100012.28;7741058;23;20027;-92
2023/07/21 12:59:28;;;;;;;2.00;1.10;;;;;;;17.43;100.00;100021.41;7739570;23;20450;-91
2023/07/21 13:02:32;;;;;;;1.52;1.10;;;;;;;17.55;100.00;100032.25;7739575;23;20355;-91
2023/07/21 13:05:34;;;;;;;1.40;1.30;;;;;;;17.67;100.00;100040.47;7740313;23;20020;-90
2023/07/21 13:08:56;;;;;;;2.20;1.55;;;;;;;17.84;100.00;100043.78;7740427;23;20472;-90
2023/07/21 13:11:58;;;;;;;2.97;2.53;;;;;;;18.06;100.00;100048.09;7739756;23;20024;-90
2023/07/21 13:15:00;;;;;;;5.38;3.58;;;;;;;18.44;100.00;100052.38;7712765;23;20035;-90
2023/07/21 13:18:02;;;;;;;13.27;6.38;;;;;;;18.90;100.00;100046.84;7739124;23;20020;-90
2023/07/21 13:21:04;;;;;;;12.55;5.72;;;;;;;19.49;100.00;100043.91;7740286;23;20493;-90
2023/07/21 13:24:07;;;;;;;3.83;2.17;;;;;;;20.10;100.00;100055.59;7739644;23;20151;-90
2023/07/21 13:27:09;;;;;;;1.60;1.38;;;;;;;20.61;100.00;100055.22;7739187;23;20016;-90
2023/07/21 13:30:11;;;;;;;0.93;0.82;;;;;;;20.89;100.00;100062.16;7711857;23;20032;-90
2023/07/21 13:33:13;;;;;;;0.90;0.88;;;;;;;20.95;100.00;100050.84;7737552;23;20020;-91
2023/07/21 13:36:15;;;;;;;1.27;0.90;;;;;;;20.94;100.00;100046.56;7712621;23;20024;-91
2023/07/21 13:39:18;;;;;;;1.40;0.88;;;;;;;21.08;100.00;100045.56;7714623;23;20026;-91
2023/07/21 13:42:20;;;;;;;1.08;0.82;;;;;;;21.30;100.00;100046.19;7742543;23;20012;-92
2023/07/21 13:45:22;;;;;;;2.25;1.13;;;;;;;21.45;100.00;100046.81;7743007;23;20327;-93
2023/07/21 13:48:24;;;;;;;1.00;0.90;;;;;;;21.56;100.00;100044.56;7715443;23;20031;-93
2023/07/21 13:51:27;;;;;;;1.23;0.90;;;;;;;21.57;100.00;100038.31;7743055;23;20020;-93
2023/07/21 13:54:31;;;;;;;2.13;1.15;;;;;;;21.57;100.00;100038.31;7742479;23;20028;-94
2023/07/21 13:57:33;;;;;;;1.25;1.15;;;;;;;21.67;100.00;100042.13;7716390;23;20020;-94
2023/07/21 14:00:35;;;;;;;1.00;0.90;;;;;;;21.93;100.00;100037.78;7714750;23;20375;-94
2023/07/21 14:03:37;;;;;;;0.98;0.90;;;;;;;22.02;100.00;100039.19;7741683;23;20020;-93
2023/07/21 14:06:39;;;;;;;1.25;1.10;;;;;;;22.00;100.00;100040.41;7742382;23;20012;-94
2023/07/21 14:09:42;;;;;;;0.95;0.93;;;;;;;21.86;100.00;100042.28;7742471;23;20024;-95